sensor_id;sensor_type;location;lat;lon;timestamp;pressure;altitude;pressure_sealevel;temperature;humidity
24486;BME280;13449;49.374;8.584;2023-04-09T00:01:48;101346.91;;;9.85;100.00
24486;BME280;13449;49.374;8.584;2023-04-09T00:04:15;101347.81;;;9.48;100.00
24486;BME280;13449;49.374;8.584;2023-04-09T00:06:44;101350.66;;;9.37;100.00
24486;BME280;13449;49.374;8.584;2023-04-09T00:09:10;101350.03;;;9.53;100.00
24486;BME280;13449;49.374;8.584;2023-04-09T00:11:42;101339.16;;;9.66;100.00
24486;BME280;13449;49.374;8.584;2023-04-09T00:14:08;101344.50;;;9.74;100.00
24486;BME280;13449;49.374;8.584;2023-04-09T00:16:35;101338.94;;;9.77;100.00
24486;BME280;13449;49.374;8.584;2023-04-09T00:19:02;101339.53;;;9.71;100.00
24486;BME280;13449;49.374;8.584;2023-04-09T00:21:31;101340.50;;;9.70;100.00
24486;BME280;13449;49.374;8.584;2023-04-09T00:23:59;101345.06;;;9.68;100.00
24486;BME280;13449;49.374;8.584;2023-04-09T00:26:30;101339.81;;;9.68;100.00
24486;BME280;13449;49.374;8.584;2023-04-09T00:28:57;101336.47;;;9.48;100.00
24486;BME280;13449;49.374;8.584;2023-04-09T00:31:25;101344.66;;;9.45;100.00
24486;BME280;13449;49.374;8.584;2023-04-09T00:33:52;101337.94;;;9.60;100.00
24486;BME280;13449;49.374;8.584;2023-04-09T00:36:18;101337.53;;;9.55;100.00
24486;BME280;13449;49.374;8.584;2023-04-09T00:38:45;101333.59;;;9.23;100.00
24486;BME280;13449;49.374;8.584;2023-04-09T00:41:13;101332.88;;;9.49;100.00
24486;BME280;13449;49.374;8.584;2023-04-09T00:43:39;101335.56;;;9.39;100.00
24486;BME280;13449;49.374;8.584;2023-04-09T00:46:06;101334.16;;;9.45;100.00
24486;BME280;13449;49.374;8.584;2023-04-09T00:48:35;101329.09;;;9.33;100.00
24486;BME280;13449;49.374;8.584;2023-04-09T00:51:01;101323.97;;;9.32;100.00
24486;BME280;13449;49.374;8.584;2023-04-09T00:53:28;101330.63;;;9.36;100.00
24486;BME280;13449;49.374;8.584;2023-04-09T00:55:54;101328.81;;;9.36;100.00
24486;BME280;13449;49.374;8.584;2023-04-09T00:58:21;101334.41;;;9.24;100.00
24486;BME280;13449;49.374;8.584;2023-04-09T01:00:48;101325.94;;;9.30;100.00
24486;BME280;13449;49.374;8.584;2023-04-09T01:03:14;101330.16;;;9.41;100.00
24486;BME280;13449;49.374;8.584;2023-04-09T01:06:04;101336.28;;;9.31;100.00
24486;BME280;13449;49.374;8.584;2023-04-09T01:08:43;101330.97;;;9.23;100.00
24486;BME280;13449;49.374;8.584;2023-04-09T01:13:54;101334.53;;;8.95;100.00
24486;BME280;13449;49.374;8.584;2023-04-09T01:16:24;101335.13;;;8.79;100.00
24486;BME280;13449;49.374;8.584;2023-04-09T01:18:58;101326.31;;;9.07;100.00
24486;BME280;13449;49.374;8.584;2023-04-09T01:21:31;101328.38;;;9.13;100.00
24486;BME280;13449;49.374;8.584;2023-04-09T01:29:12;101316.72;;;9.16;100.00
24486;BME280;13449;49.374;8.584;2023-04-09T01:31:41;101322.66;;;8.91;100.00
24486;BME280;13449;49.374;8.584;2023-04-09T01:34:09;101325.91;;;9.02;100.00
24486;BME280;13449;49.374;8.584;2023-04-09T01:36:38;101323.63;;;8.80;100.00
24486;BME280;13449;49.374;8.584;2023-04-09T01:39:06;101326.84;;;8.74;100.00
24486;BME280;13449;49.374;8.584;2023-04-09T01:41:34;101326.13;;;8.81;100.00
24486;BME280;13449;49.374;8.584;2023-04-09T01:44:02;101322.88;;;9.07;100.00
24486;BME280;13449;49.374;8.584;2023-04-09T01:46:29;101328.25;;;9.05;100.00
24486;BME280;13449;49.374;8.584;2023-04-09T01:48:57;101325.25;;;9.00;100.00
24486;BME280;13449;49.374;8.584;2023-04-09T01:51:24;101320.94;;;8.99;100.00
24486;BME280;13449;49.374;8.584;2023-04-09T01:53:52;101325.13;;;8.92;100.00
24486;BME280;13449;49.374;8.584;2023-04-09T01:56:19;101326.34;;;8.98;100.00
24486;BME280;13449;49.374;8.584;2023-04-09T01:58:46;101328.69;;;9.01;100.00
24486;BME280;13449;49.374;8.584;2023-04-09T02:01:22;101322.47;;;9.02;100.00
24486;BME280;13449;49.374;8.584;2023-04-09T02:04:00;101322.22;;;8.95;100.00
24486;BME280;13449;49.374;8.584;2023-04-09T02:06:35;101331.19;;;8.93;100.00
24486;BME280;13449;49.374;8.584;2023-04-09T02:09:07;101336.47;;;8.93;100.00
24486;BME280;13449;49.374;8.584;2023-04-09T02:11:37;101332.97;;;8.64;100.00
24486;BME280;13449;49.374;8.584;2023-04-09T02:14:06;101330.22;;;8.94;100.00
24486;BME280;13449;49.374;8.584;2023-04-09T02:16:34;101332.19;;;8.92;100.00
24486;BME280;13449;49.374;8.584;2023-04-09T02:19:01;101327.06;;;8.90;100.00
24486;BME280;13449;49.374;8.584;2023-04-09T02:21:31;101330.53;;;8.91;100.00
24486;BME280;13449;49.374;8.584;2023-04-09T02:23:57;101334.31;;;8.78;100.00
24486;BME280;13449;49.374;8.584;2023-04-09T02:26:26;101330.97;;;8.76;100.00
24486;BME280;13449;49.374;8.584;2023-04-09T02:28:53;101338.75;;;8.78;100.00
24486;BME280;13449;49.374;8.584;2023-04-09T02:31:19;101336.56;;;8.34;100.00
24486;BME280;13449;49.374;8.584;2023-04-09T02:33:46;101328.00;;;8.52;100.00
24486;BME280;13449;49.374;8.584;2023-04-09T02:36:13;101325.75;;;8.66;100.00
24486;BME280;13449;49.374;8.584;2023-04-09T02:38:40;101322.47;;;8.64;100.00
24486;BME280;13449;49.374;8.584;2023-04-09T02:41:07;101319.84;;;8.64;100.00
24486;BME280;13449;49.374;8.584;2023-04-09T02:43:33;101322.88;;;8.60;100.00
24486;BME280;13449;49.374;8.584;2023-04-09T02:46:00;101324.66;;;8.59;100.00
24486;BME280;13449;49.374;8.584;2023-04-09T02:48:26;101324.78;;;8.58;100.00
24486;BME280;13449;49.374;8.584;2023-04-09T02:50:53;101325.75;;;8.66;100.00
24486;BME280;13449;49.374;8.584;2023-04-09T02:53:19;101329.09;;;8.59;100.00
24486;BME280;13449;49.374;8.584;2023-04-09T02:55:49;101328.00;;;8.61;100.00
24486;BME280;13449;49.374;8.584;2023-04-09T02:58:15;101328.13;;;8.60;100.00
24486;BME280;13449;49.374;8.584;2023-04-09T03:00:42;101331.00;;;8.66;100.00
24486;BME280;13449;49.374;8.584;2023-04-09T03:03:08;101332.94;;;8.74;100.00
24486;BME280;13449;49.374;8.584;2023-04-09T03:05:38;101326.16;;;8.72;100.00
24486;BME280;13449;49.374;8.584;2023-04-09T03:08:04;101328.78;;;8.81;100.00
24486;BME280;13449;49.374;8.584;2023-04-09T03:10:31;101324.22;;;8.74;100.00
24486;BME280;13449;49.374;8.584;2023-04-09T03:12:57;101324.38;;;8.62;100.00
24486;BME280;13449;49.374;8.584;2023-04-09T03:15:24;101321.53;;;8.83;100.00
24486;BME280;13449;49.374;8.584;2023-04-09T03:17:50;101321.88;;;8.71;100.00
24486;BME280;13449;49.374;8.584;2023-04-09T03:20:17;101320.22;;;8.70;100.00
24486;BME280;13449;49.374;8.584;2023-04-09T03:22:44;101316.19;;;8.75;100.00
24486;BME280;13449;49.374;8.584;2023-04-09T03:25:13;101314.69;;;8.73;100.00
24486;BME280;13449;49.374;8.584;2023-04-09T03:27:40;101314.03;;;8.32;100.00
24486;BME280;13449;49.374;8.584;2023-04-09T03:30:06;101312.81;;;8.36;100.00
24486;BME280;13449;49.374;8.584;2023-04-09T03:32:33;101313.31;;;8.69;100.00
24486;BME280;13449;49.374;8.584;2023-04-09T03:35:02;101312.28;;;8.42;100.00
24486;BME280;13449;49.374;8.584;2023-04-09T03:37:29;101313.09;;;8.42;100.00
24486;BME280;13449;49.374;8.584;2023-04-09T03:39:55;101319.72;;;8.47;100.00
24486;BME280;13449;49.374;8.584;2023-04-09T03:42:22;101318.34;;;8.52;100.00
24486;BME280;13449;49.374;8.584;2023-04-09T03:44:48;101320.97;;;8.33;100.00
24486;BME280;13449;49.374;8.584;2023-04-09T03:47:15;101313.75;;;8.45;100.00
24486;BME280;13449;49.374;8.584;2023-04-09T03:49:43;101315.28;;;8.47;100.00
24486;BME280;13449;49.374;8.584;2023-04-09T03:52:10;101313.75;;;8.45;100.00
24486;BME280;13449;49.374;8.584;2023-04-09T03:54:36;101312.94;;;8.54;100.00
24486;BME280;13449;49.374;8.584;2023-04-09T03:57:02;101314.59;;;8.64;100.00
24486;BME280;13449;49.374;8.584;2023-04-09T03:59:29;101320.22;;;8.70;100.00
24486;BME280;13449;49.374;8.584;2023-04-09T04:01:56;101321.91;;;8.51;100.00
24486;BME280;13449;49.374;8.584;2023-04-09T04:04:22;101318.06;;;8.26;100.00
24486;BME280;13449;49.374;8.584;2023-04-09T04:06:49;101306.31;;;8.20;100.00
24486;BME280;13449;49.374;8.584;2023-04-09T04:09:16;101310.75;;;8.20;100.00
24486;BME280;13449;49.374;8.584;2023-04-09T04:11:42;101310.75;;;8.39;100.00
24486;BME280;13449;49.374;8.584;2023-04-09T04:14:09;101321.38;;;8.48;100.00
24486;BME280;13449;49.374;8.584;2023-04-09T04:16:39;101318.34;;;8.52;100.00
24486;BME280;13449;49.374;8.584;2023-04-09T04:19:06;101314.63;;;8.16;100.00
24486;BME280;13449;49.374;8.584;2023-04-09T04:21:32;101318.91;;;8.07;100.00
24486;BME280;13449;49.374;8.584;2023-04-09T04:23:58;101319.97;;;8.34;100.00
24486;BME280;13449;49.374;8.584;2023-04-09T04:26:25;101318.47;;;8.02;100.00
24486;BME280;13449;49.374;8.584;2023-04-09T04:28:51;101317.94;;;7.99;100.00
24486;BME280;13449;49.374;8.584;2023-04-09T04:31:18;101322.88;;;8.50;100.00
24486;BME280;13449;49.374;8.584;2023-04-09T04:33:45;101319.00;;;8.35;100.00
24486;BME280;13449;49.374;8.584;2023-04-09T04:36:12;101320.00;;;7.95;100.00
24486;BME280;13449;49.374;8.584;2023-04-09T04:38:42;101318.47;;;7.92;100.00
24486;BME280;13449;49.374;8.584;2023-04-09T04:41:09;101321.66;;;7.86;100.00
24486;BME280;13449;49.374;8.584;2023-04-09T04:43:36;101326.63;;;7.89;100.00
24486;BME280;13449;49.374;8.584;2023-04-09T04:46:02;101323.88;;;8.01;100.00
24486;BME280;13449;49.374;8.584;2023-04-09T04:48:29;101324.44;;;8.04;100.00
24486;BME280;13449;49.374;8.584;2023-04-09T04:50:59;101322.63;;;8.14;100.00
24486;BME280;13449;49.374;8.584;2023-04-09T04:53:28;101326.50;;;8.20;100.00
24486;BME280;13449;49.374;8.584;2023-04-09T04:55:55;101327.47;;;8.19;100.00
24486;BME280;13449;49.374;8.584;2023-04-09T04:58:21;101324.97;;;8.17;100.00
24486;BME280;13449;49.374;8.584;2023-04-09T05:00:50;101332.41;;;8.22;100.00
24486;BME280;13449;49.374;8.584;2023-04-09T05:03:17;101328.84;;;8.33;100.00
24486;BME280;13449;49.374;8.584;2023-04-09T05:05:43;101338.09;;;8.17;100.00
24486;BME280;13449;49.374;8.584;2023-04-09T05:08:11;101331.72;;;7.81;100.00
24486;BME280;13449;49.374;8.584;2023-04-09T05:10:40;101335.91;;;8.03;100.00
24486;BME280;13449;49.374;8.584;2023-04-09T05:13:08;101337.97;;;8.19;100.00
24486;BME280;13449;49.374;8.584;2023-04-09T05:15:37;101336.19;;;8.10;100.00
24486;BME280;13449;49.374;8.584;2023-04-09T05:18:04;101337.00;;;8.10;100.00
24486;BME280;13449;49.374;8.584;2023-04-09T05:20:32;101339.19;;;8.05;100.00
24486;BME280;13449;49.374;8.584;2023-04-09T05:22:59;101335.19;;;8.01;100.00
24486;BME280;13449;49.374;8.584;2023-04-09T05:25:25;101331.19;;;8.07;100.00
24486;BME280;13449;49.374;8.584;2023-04-09T05:27:52;101336.56;;;7.95;100.00
24486;BME280;13449;49.374;8.584;2023-04-09T05:30:21;101331.19;;;7.97;100.00
24486;BME280;13449;49.374;8.584;2023-04-09T05:32:47;101336.56;;;7.95;100.00
24486;BME280;13449;49.374;8.584;2023-04-09T05:35:14;101343.06;;;8.20;100.00
24486;BME280;13449;49.374;8.584;2023-04-09T05:37:40;101339.88;;;8.27;100.00
24486;BME280;13449;49.374;8.584;2023-04-09T05:40:07;101341.16;;;8.03;100.00
24486;BME280;13449;49.374;8.584;2023-04-09T05:42:36;101338.53;;;7.93;100.00
24486;BME280;13449;49.374;8.584;2023-04-09T05:45:03;101348.31;;;8.11;100.00
24486;BME280;13449;49.374;8.584;2023-04-09T05:47:29;101346.41;;;8.13;100.00
24486;BME280;13449;49.374;8.584;2023-04-09T05:49:56;101354.81;;;8.16;100.00
24486;BME280;13449;49.374;8.584;2023-04-09T05:52:23;101352.59;;;8.31;100.00
24486;BME280;13449;49.374;8.584;2023-04-09T05:54:49;101344.88;;;8.39;100.00
24486;BME280;13449;49.374;8.584;2023-04-09T05:57:16;101349.28;;;8.58;100.00
24486;BME280;13449;49.374;8.584;2023-04-09T05:59:42;101348.72;;;8.64;100.00
24486;BME280;13449;49.374;8.584;2023-04-09T06:02:09;101343.63;;;8.34;100.00
24486;BME280;13449;49.374;8.584;2023-04-09T06:04:35;101351.75;;;8.70;100.00
24486;BME280;13449;49.374;8.584;2023-04-09T06:07:02;101349.84;;;8.62;100.00
24486;BME280;13449;49.374;8.584;2023-04-09T06:09:28;101355.16;;;8.80;100.00
24486;BME280;13449;49.374;8.584;2023-04-09T06:11:54;101352.75;;;8.96;100.00
24486;BME280;13449;49.374;8.584;2023-04-09T06:14:23;101355.28;;;8.88;100.00
24486;BME280;13449;49.374;8.584;2023-04-09T06:16:51;101363.84;;;8.90;100.00
24486;BME280;13449;49.374;8.584;2023-04-09T06:19:18;101357.75;;;8.89;100.00
24486;BME280;13449;49.374;8.584;2023-04-09T06:21:47;101357.56;;;9.10;100.00
24486;BME280;13449;49.374;8.584;2023-04-09T06:24:13;101358.53;;;9.09;100.00
24486;BME280;13449;49.374;8.584;2023-04-09T06:26:39;101359.47;;;9.18;100.00
24486;BME280;13449;49.374;8.584;2023-04-09T06:29:06;101366.53;;;9.18;100.00
24486;BME280;13449;49.374;8.584;2023-04-09T06:31:35;101366.28;;;9.39;100.00
24486;BME280;13449;49.374;8.584;2023-04-09T06:34:04;101361.28;;;9.45;100.00
24486;BME280;13449;49.374;8.584;2023-04-09T06:36:31;101360.91;;;9.40;100.00
24486;BME280;13449;49.374;8.584;2023-04-09T06:38:58;101370.44;;;9.41;100.00
24486;BME280;13449;49.374;8.584;2023-04-09T06:41:27;101363.78;;;9.47;100.00
24486;BME280;13449;49.374;8.584;2023-04-09T06:43:54;101365.38;;;9.57;100.00
24486;BME280;13449;49.374;8.584;2023-04-09T06:46:20;101369.63;;;9.41;100.00
24486;BME280;13449;49.374;8.584;2023-04-09T06:48:47;101363.84;;;9.82;100.00
24486;BME280;13449;49.374;8.584;2023-04-09T06:51:13;101373.00;;;9.96;100.00
24486;BME280;13449;49.374;8.584;2023-04-09T06:53:40;101372.13;;;10.05;100.00
24486;BME280;13449;49.374;8.584;2023-04-09T06:56:07;101368.38;;;10.08;100.00
24486;BME280;13449;49.374;8.584;2023-04-09T06:58:34;101374.38;;;10.36;100.00
24486;BME280;13449;49.374;8.584;2023-04-09T07:01:00;101365.88;;;10.42;100.00
24486;BME280;13449;49.374;8.584;2023-04-09T07:03:27;101366.44;;;10.28;100.00
24486;BME280;13449;49.374;8.584;2023-04-09T07:05:57;101367.53;;;10.25;100.00
24486;BME280;13449;49.374;8.584;2023-04-09T07:08:26;101366.28;;;10.73;100.00
24486;BME280;13449;49.374;8.584;2023-04-09T07:10:53;101371.44;;;10.21;100.00
24486;BME280;13449;49.374;8.584;2023-04-09T07:13:20;101361.81;;;10.12;100.00
24486;BME280;13449;49.374;8.584;2023-04-09T07:15:46;101367.38;;;10.63;100.00
24486;BME280;13449;49.374;8.584;2023-04-09T07:18:13;101371.88;;;10.79;100.00
24486;BME280;13449;49.374;8.584;2023-04-09T07:20:40;101370.91;;;11.06;100.00
24486;BME280;13449;49.374;8.584;2023-04-09T07:23:11;101372.13;;;11.62;100.00
24486;BME280;13449;49.374;8.584;2023-04-09T07:25:37;101373.91;;;11.53;100.00
24486;BME280;13449;49.374;8.584;2023-04-09T07:28:04;101376.75;;;11.68;100.00
24486;BME280;13449;49.374;8.584;2023-04-09T07:30:31;101375.97;;;11.33;100.00
24486;BME280;13449;49.374;8.584;2023-04-09T07:32:58;101371.81;;;11.73;100.00
24486;BME280;13449;49.374;8.584;2023-04-09T07:35:26;101374.63;;;11.63;100.00
24486;BME280;13449;49.374;8.584;2023-04-09T07:37:53;101377.94;;;11.74;100.00
24486;BME280;13449;49.374;8.584;2023-04-09T07:40:22;101373.25;;;11.51;100.00
24486;BME280;13449;49.374;8.584;2023-04-09T07:42:48;101368.16;;;11.66;100.00
24486;BME280;13449;49.374;8.584;2023-04-09T07:45:16;101372.22;;;11.95;100.00
24486;BME280;13449;49.374;8.584;2023-04-09T07:47:42;101368.78;;;12.43;100.00
24486;BME280;13449;49.374;8.584;2023-04-09T07:50:09;101368.28;;;12.48;100.00
24486;BME280;13449;49.374;8.584;2023-04-09T07:52:35;101377.72;;;12.34;100.00
24486;BME280;13449;49.374;8.584;2023-04-09T07:55:02;101381.00;;;12.28;100.00
24486;BME280;13449;49.374;8.584;2023-04-09T07:57:32;101376.19;;;12.64;100.00
24486;BME280;13449;49.374;8.584;2023-04-09T07:59:59;101377.22;;;12.55;100.00
24486;BME280;13449;49.374;8.584;2023-04-09T08:02:25;101376.38;;;12.05;100.00
24486;BME280;13449;49.374;8.584;2023-04-09T08:04:52;101385.97;;;12.06;100.00
24486;BME280;13449;49.374;8.584;2023-04-09T08:07:19;101382.28;;;11.91;100.00
24486;BME280;13449;49.374;8.584;2023-04-09T08:09:48;101381.50;;;12.31;100.00
24486;BME280;13449;49.374;8.584;2023-04-09T08:12:14;101385.94;;;11.98;100.00
24486;BME280;13449;49.374;8.584;2023-04-09T08:14:40;101383.47;;;12.21;100.00
24486;BME280;13449;49.374;8.584;2023-04-09T08:17:07;101384.44;;;11.96;100.00
24486;BME280;13449;49.374;8.584;2023-04-09T08:19:36;101388.31;;;11.75;100.00
24486;BME280;13449;49.374;8.584;2023-04-09T08:22:05;101391.69;;;11.85;100.00
24486;BME280;13449;49.374;8.584;2023-04-09T08:24:35;101397.34;;;12.48;100.00
24486;BME280;13449;49.374;8.584;2023-04-09T08:27:02;101393.06;;;12.71;100.00
24486;BME280;13449;49.374;8.584;2023-04-09T08:29:28;101388.25;;;12.83;100.00
24486;BME280;13449;49.374;8.584;2023-04-09T08:31:57;101395.06;;;12.45;100.00
24486;BME280;13449;49.374;8.584;2023-04-09T08:34:24;101395.88;;;12.21;100.00
24486;BME280;13449;49.374;8.584;2023-04-09T08:36:50;101391.91;;;12.57;100.00
24486;BME280;13449;49.374;8.584;2023-04-09T08:39:17;101402.81;;;12.62;100.00
24486;BME280;13449;49.374;8.584;2023-04-09T08:41:45;101401.00;;;12.71;100.00
24486;BME280;13449;49.374;8.584;2023-04-09T08:44:13;101395.50;;;12.97;100.00
24486;BME280;13449;49.374;8.584;2023-04-09T08:46:40;101410.22;;;12.83;100.00
24486;BME280;13449;49.374;8.584;2023-04-09T08:49:07;101400.28;;;13.10;100.00
24486;BME280;13449;49.374;8.584;2023-04-09T08:51:34;101402.97;;;12.77;100.00
24486;BME280;13449;49.374;8.584;2023-04-09T08:54:01;101403.00;;;12.61;100.00
24486;BME280;13449;49.374;8.584;2023-04-09T08:56:30;101395.88;;;13.42;100.00
24486;BME280;13449;49.374;8.584;2023-04-09T08:58:56;101406.72;;;13.63;100.00
24486;BME280;13449;49.374;8.584;2023-04-09T09:01:27;101402.06;;;13.65;100.00
24486;BME280;13449;49.374;8.584;2023-04-09T09:06:32;101400.06;;;13.20;100.00
24486;BME280;13449;49.374;8.584;2023-04-09T09:09:17;101403.47;;;12.81;100.00
24486;BME280;13449;49.374;8.584;2023-04-09T09:11:45;101408.41;;;12.76;100.00
24486;BME280;13449;49.374;8.584;2023-04-09T09:14:15;101404.63;;;12.54;100.00
24486;BME280;13449;49.374;8.584;2023-04-09T09:22:01;101394.28;;;13.32;100.00
24486;BME280;13449;49.374;8.584;2023-04-09T09:24:29;101397.09;;;13.31;100.00
24486;BME280;13449;49.374;8.584;2023-04-09T09:26:56;101389.25;;;13.46;99.46
24486;BME280;13449;49.374;8.584;2023-04-09T09:29:24;101386.25;;;14.72;97.37
24486;BME280;13449;49.374;8.584;2023-04-09T09:31:54;101382.56;;;14.12;74.71
24486;BME280;13449;49.374;8.584;2023-04-09T09:34:22;101389.81;;;14.41;81.31
24486;BME280;13449;49.374;8.584;2023-04-09T09:36:49;101390.28;;;15.27;72.84
24486;BME280;13449;49.374;8.584;2023-04-09T09:39:16;101391.50;;;14.95;86.55
24486;BME280;13449;49.374;8.584;2023-04-09T09:41:46;101386.69;;;14.38;86.27
24486;BME280;13449;49.374;8.584;2023-04-09T09:44:30;101386.00;;;15.26;79.40
24486;BME280;13449;49.374;8.584;2023-04-09T09:46:57;101382.56;;;15.98;81.70
24486;BME280;13449;49.374;8.584;2023-04-09T09:49:24;101391.69;;;15.38;78.12
24486;BME280;13449;49.374;8.584;2023-04-09T09:51:52;101384.22;;;15.78;62.81
24486;BME280;13449;49.374;8.584;2023-04-09T09:54:24;101385.00;;;15.93;61.44
24486;BME280;13449;49.374;8.584;2023-04-09T09:56:51;101384.06;;;16.22;64.63
24486;BME280;13449;49.374;8.584;2023-04-09T09:59:22;101381.34;;;16.44;56.34
24486;BME280;13449;49.374;8.584;2023-04-09T10:02:03;101371.84;;;16.77;55.70
24486;BME280;13449;49.374;8.584;2023-04-09T10:04:33;101374.84;;;16.25;50.67
24486;BME280;13449;49.374;8.584;2023-04-09T10:07:05;101363.88;;;16.06;48.01
24486;BME280;13449;49.374;8.584;2023-04-09T10:09:37;101374.97;;;15.95;50.79
24486;BME280;13449;49.374;8.584;2023-04-09T10:12:06;101367.66;;;16.19;51.40
24486;BME280;13449;49.374;8.584;2023-04-09T10:14:38;101361.63;;;16.31;53.73
24486;BME280;13449;49.374;8.584;2023-04-09T10:17:05;101367.84;;;15.96;52.90
24486;BME280;13449;49.374;8.584;2023-04-09T10:19:37;101368.31;;;15.33;51.06
24486;BME280;13449;49.374;8.584;2023-04-09T10:22:10;101368.25;;;15.12;55.15
24486;BME280;13449;49.374;8.584;2023-04-09T10:24:41;101377.56;;;14.78;56.22
24486;BME280;13449;49.374;8.584;2023-04-09T10:27:10;101373.06;;;14.64;57.20
24486;BME280;13449;49.374;8.584;2023-04-09T10:29:47;101370.22;;;14.51;60.44
24486;BME280;13449;49.374;8.584;2023-04-09T10:32:18;101376.75;;;14.78;51.08
24486;BME280;13449;49.374;8.584;2023-04-09T10:34:50;101369.66;;;14.55;48.81
24486;BME280;13449;49.374;8.584;2023-04-09T10:37:22;101361.31;;;14.96;50.45
24486;BME280;13449;49.374;8.584;2023-04-09T10:39:49;101366.69;;;15.17;52.10
24486;BME280;13449;49.374;8.584;2023-04-09T10:42:19;101356.84;;;15.11;52.22
24486;BME280;13449;49.374;8.584;2023-04-09T10:47:37;101351.97;;;16.02;55.63
24486;BME280;13449;49.374;8.584;2023-04-09T10:50:21;101353.97;;;15.13;49.91
24486;BME280;13449;49.374;8.584;2023-04-09T10:52:55;101348.69;;;14.83;49.04
24486;BME280;13449;49.374;8.584;2023-04-09T10:55:40;101355.69;;;15.20;50.31
24486;BME280;13449;49.374;8.584;2023-04-09T10:58:10;101353.81;;;15.00;44.17
24486;BME280;13449;49.374;8.584;2023-04-09T11:00:44;101345.22;;;14.83;47.37
24486;BME280;13449;49.374;8.584;2023-04-09T11:03:26;101347.56;;;15.07;46.96
24486;BME280;13449;49.374;8.584;2023-04-09T11:06:04;101347.66;;;15.14;45.91
24486;BME280;13449;49.374;8.584;2023-04-09T11:08:35;101345.38;;;14.81;47.28
24486;BME280;13449;49.374;8.584;2023-04-09T11:11:01;101342.28;;;14.92;47.26
24486;BME280;13449;49.374;8.584;2023-04-09T11:13:30;101349.69;;;14.97;47.40
24486;BME280;13449;49.374;8.584;2023-04-09T11:15:57;101348.59;;;15.21;50.18
24486;BME280;13449;49.374;8.584;2023-04-09T11:18:26;101337.13;;;15.35;47.66
24486;BME280;13449;49.374;8.584;2023-04-09T11:21:00;101341.13;;;15.46;47.25
24486;BME280;13449;49.374;8.584;2023-04-09T11:23:27;101333.88;;;15.70;47.62
24486;BME280;13449;49.374;8.584;2023-04-09T11:25:54;101330.66;;;15.08;47.86
24486;BME280;13449;49.374;8.584;2023-04-09T11:28:27;101343.38;;;15.13;46.62
24486;BME280;13449;49.374;8.584;2023-04-09T11:30:56;101329.69;;;15.82;47.65
24486;BME280;13449;49.374;8.584;2023-04-09T11:33:30;101333.19;;;15.31;44.53
24486;BME280;13449;49.374;8.584;2023-04-09T11:35:57;101334.38;;;15.29;47.00
24486;BME280;13449;49.374;8.584;2023-04-09T11:38:23;101324.50;;;15.37;44.49
24486;BME280;13449;49.374;8.584;2023-04-09T11:40:56;101325.00;;;15.11;46.94
24486;BME280;13449;49.374;8.584;2023-04-09T11:43:23;101333.81;;;15.33;49.71
24486;BME280;13449;49.374;8.584;2023-04-09T11:45:52;101326.66;;;15.49;49.77
24486;BME280;13449;49.374;8.584;2023-04-09T11:48:22;101330.63;;;15.23;45.52
24486;BME280;13449;49.374;8.584;2023-04-09T11:50:50;101327.72;;;15.18;44.50
24486;BME280;13449;49.374;8.584;2023-04-09T11:53:21;101330.53;;;15.16;44.89
24486;BME280;13449;49.374;8.584;2023-04-09T11:55:52;101333.66;;;15.20;42.53
24486;BME280;13449;49.374;8.584;2023-04-09T11:58:21;101332.09;;;15.40;43.59
24486;BME280;13449;49.374;8.584;2023-04-09T12:00:52;101326.00;;;15.47;45.15
24486;BME280;13449;49.374;8.584;2023-04-09T12:03:27;101333.13;;;15.25;46.27
24486;BME280;13449;49.374;8.584;2023-04-09T12:05:55;101335.41;;;14.98;43.47
24486;BME280;13449;49.374;8.584;2023-04-09T12:08:22;101330.28;;;14.67;46.15
24486;BME280;13449;49.374;8.584;2023-04-09T12:10:52;101330.66;;;14.93;43.10
24486;BME280;13449;49.374;8.584;2023-04-09T12:13:19;101326.44;;;14.84;44.23
24486;BME280;13449;49.374;8.584;2023-04-09T12:15:48;101338.06;;;14.98;44.33
24486;BME280;13449;49.374;8.584;2023-04-09T12:18:15;101331.84;;;15.57;42.85
24486;BME280;13449;49.374;8.584;2023-04-09T12:20:45;101327.78;;;15.76;43.09
24486;BME280;13449;49.374;8.584;2023-04-09T12:23:13;101329.75;;;15.52;41.63
24486;BME280;13449;49.374;8.584;2023-04-09T12:25:41;101331.09;;;15.63;42.36
24486;BME280;13449;49.374;8.584;2023-04-09T12:28:12;101320.69;;;15.47;43.03
24486;BME280;13449;49.374;8.584;2023-04-09T12:30:41;101311.47;;;16.22;41.32
24486;BME280;13449;49.374;8.584;2023-04-09T12:33:08;101310.44;;;16.23;39.90
24486;BME280;13449;49.374;8.584;2023-04-09T12:35:36;101299.44;;;16.60;39.73
24486;BME280;13449;49.374;8.584;2023-04-09T12:38:03;101300.50;;;16.10;41.09
24486;BME280;13449;49.374;8.584;2023-04-09T12:40:30;101299.75;;;15.95;41.75
24486;BME280;13449;49.374;8.584;2023-04-09T12:42:57;101300.59;;;15.74;41.38
24486;BME280;13449;49.374;8.584;2023-04-09T12:45:25;101302.34;;;15.88;42.25
24486;BME280;13449;49.374;8.584;2023-04-09T12:47:53;101300.38;;;15.03;41.72
24486;BME280;13449;49.374;8.584;2023-04-09T12:50:20;101301.25;;;15.25;42.59
24486;BME280;13449;49.374;8.584;2023-04-09T12:52:46;101301.72;;;15.50;41.20
24486;BME280;13449;49.374;8.584;2023-04-09T12:55:13;101299.34;;;15.70;41.86
24486;BME280;13449;49.374;8.584;2023-04-09T12:57:48;101289.44;;;16.06;41.59
24486;BME280;13449;49.374;8.584;2023-04-09T13:00:15;101279.59;;;16.28;40.58
24486;BME280;13449;49.374;8.584;2023-04-09T13:02:41;101282.25;;;16.28;41.18
24486;BME280;13449;49.374;8.584;2023-04-09T13:05:08;101274.44;;;15.56;41.32
24486;BME280;13449;49.374;8.584;2023-04-09T13:07:34;101275.16;;;15.28;43.63
24486;BME280;13449;49.374;8.584;2023-04-09T13:10:01;101269.50;;;15.53;42.84
24486;BME280;13449;49.374;8.584;2023-04-09T13:12:27;101266.88;;;15.74;41.34